Time;durP1;ratioP1;P1;durP2;ratioP2;P2;SDS_P1;SDS_P2;PMS_P1;PMS_P2;Temp;Humidity;BMP_temperature;BMP_pressure;BME280_temperature;BME280_humidity;BME280_pressure;Samples;Min_cycle;Max_cycle;Signal;HPM_P1;HPM_P2
2022/05/05 00:01:49;;;;;;;18.10;11.97;;;10.00;99.90;;;;;;4173611;28;20049;-57
2022/05/05 00:03:50;;;;;;;19.43;11.43;;;10.00;99.90;;;;;;4174396;28;20119;-55
2022/05/05 00:05:51;;;;;;;16.77;11.67;;;10.00;99.90;;;;;;4174141;28;20082;-66
2022/05/05 00:07:52;;;;;;;13.60;11.10;;;10.00;99.90;;;;;;4173704;28;20516;-53
2022/05/05 00:09:54;;;;;;;14.93;11.40;;;9.90;99.90;;;;;;4174531;28;20500;-48
2022/05/05 00:14:24;;;;;;;19.42;11.60;;;9.90;99.90;;;;;;4175048;28;20075;-59
2022/05/05 00:16:27;;;;;;;19.95;11.45;;;9.90;99.90;;;;;;4158272;28;20084;-59
2022/05/05 00:18:28;;;;;;;18.63;10.87;;;9.90;99.90;;;;;;4173364;28;20055;-55
2022/05/05 00:20:29;;;;;;;14.33;11.03;;;9.90;99.90;;;;;;4174657;28;20033;-50
2022/05/05 00:22:30;;;;;;;13.20;10.20;;;9.80;99.90;;;;;;4174923;28;20082;-56
2022/05/05 00:24:32;;;;;;;15.17;10.87;;;9.80;99.90;;;;;;4173661;28;20044;-70
2022/05/05 00:26:34;;;;;;;13.17;9.47;;;9.80;99.90;;;;;;4173685;28;20041;-54
2022/05/05 00:28:35;;;;;;;15.33;10.80;;;9.70;99.90;;;;;;4174973;28;20048;-56
2022/05/05 00:30:36;;;;;;;13.03;9.27;;;9.70;99.90;;;;;;4173810;28;20095;-56
2022/05/05 00:32:38;;;;;;;12.97;9.33;;;9.70;99.90;;;;;;4173353;28;20106;-55
2022/05/05 00:34:40;;;;;;;13.77;10.13;;;9.70;99.90;;;;;;4174419;28;20029;-63
2022/05/05 00:36:41;;;;;;;13.03;9.27;;;9.60;99.90;;;;;;4174252;28;20033;-57
2022/05/05 00:38:43;;;;;;;12.73;9.47;;;9.60;99.90;;;;;;4173857;28;20029;-52
2022/05/05 00:40:44;;;;;;;11.67;8.97;;;9.60;99.90;;;;;;4174367;28;20098;-63
2022/05/05 00:42:46;;;;;;;14.20;8.83;;;9.60;99.90;;;;;;4173649;28;21352;-59
2022/05/05 00:44:47;;;;;;;14.40;9.67;;;9.60;99.90;;;;;;4173665;28;20103;-54
2022/05/05 00:46:51;;;;;;;14.07;9.30;;;9.50;99.90;;;;;;4174443;28;20028;-56
2022/05/05 00:48:52;;;;;;;13.97;9.20;;;9.50;99.90;;;;;;4172533;28;20091;-61
2022/05/05 00:50:55;;;;;;;13.47;9.67;;;9.50;99.90;;;;;;4173678;28;20070;-60
2022/05/05 00:52:56;;;;;;;13.80;9.17;;;9.50;99.90;;;;;;4173830;28;20053;-55
2022/05/05 00:55:00;;;;;;;11.90;9.20;;;9.50;99.90;;;;;;4173387;28;20053;-53
2022/05/05 00:57:01;;;;;;;10.07;8.53;;;9.40;99.90;;;;;;4173875;28;20032;-56
2022/05/05 00:59:02;;;;;;;11.63;8.53;;;9.40;99.90;;;;;;4174289;28;20079;-52
2022/05/05 01:01:04;;;;;;;12.57;9.33;;;9.40;99.90;;;;;;4173233;28;20559;-54
2022/05/05 01:03:09;;;;;;;11.97;9.00;;;9.30;99.90;;;;;;4173607;28;20033;-66
2022/05/05 01:05:10;;;;;;;15.33;9.40;;;9.30;99.90;;;;;;4173740;28;20045;-63
2022/05/05 01:07:12;;;;;;;11.70;9.33;;;9.30;99.90;;;;;;4174074;28;20025;-60
2022/05/05 01:09:13;;;;;;;12.27;9.43;;;9.30;99.90;;;;;;4173941;28;20912;-55
2022/05/05 01:11:14;;;;;;;11.80;9.20;;;9.20;99.90;;;;;;4174031;28;20028;-56
2022/05/05 01:13:15;;;;;;;12.37;8.00;;;9.20;99.90;;;;;;4171948;28;20094;-63
2022/05/05 01:15:16;;;;;;;12.33;9.10;;;9.20;99.90;;;;;;4173475;28;20036;-55
2022/05/05 01:17:18;;;;;;;15.60;8.93;;;9.20;99.90;;;;;;4173737;28;20091;-64
2022/05/05 01:19:19;;;;;;;13.50;10.50;;;9.20;99.90;;;;;;4173600;28;20033;-56
2022/05/05 01:21:20;;;;;;;14.33;11.17;;;9.10;99.90;;;;;;4173268;28;20048;-59
2022/05/05 01:23:22;;;;;;;12.73;9.67;;;9.10;99.90;;;;;;4173735;28;20036;-60
2022/05/05 01:30:04;;;;;;;13.67;10.50;;;9.00;99.90;;;;;;4157544;28;20563;-52
2022/05/05 01:32:06;;;;;;;16.80;11.47;;;9.00;99.90;;;;;;4172667;28;20037;-58
2022/05/05 01:34:07;;;;;;;14.77;10.00;;;8.90;99.90;;;;;;4173483;28;20036;-56
2022/05/05 01:36:08;;;;;;;16.50;11.23;;;8.90;99.90;;;;;;4172504;28;20087;-57
2022/05/05 01:38:11;;;;;;;19.50;10.23;;;8.90;99.90;;;;;;4172812;28;20110;-65
2022/05/05 01:40:12;;;;;;;14.90;10.87;;;8.90;99.90;;;;;;4172722;28;20021;-69
2022/05/05 01:42:13;;;;;;;14.67;10.27;;;8.90;99.90;;;;;;4174008;28;20076;-63
2022/05/05 01:44:15;;;;;;;18.80;11.20;;;8.80;99.90;;;;;;4173171;28;20099;-55
2022/05/05 01:46:17;;;;;;;17.03;10.97;;;8.80;99.90;;;;;;4172825;28;20516;-68
2022/05/05 01:48:18;;;;;;;15.40;10.20;;;8.80;99.90;;;;;;4172526;28;20126;-66
2022/05/05 01:50:20;;;;;;;16.47;11.17;;;8.70;99.90;;;;;;4173574;28;20021;-57
2022/05/05 01:52:21;;;;;;;16.07;10.37;;;8.70;99.90;;;;;;4172830;28;20586;-56
2022/05/05 01:54:22;;;;;;;15.77;11.57;;;8.60;99.90;;;;;;4172596;28;20037;-59
2022/05/05 01:56:24;;;;;;;17.47;10.87;;;8.50;99.90;;;;;;4172781;28;20192;-53
2022/05/05 01:58:25;;;;;;;15.23;10.43;;;8.40;99.90;;;;;;4173317;28;20041;-57
2022/05/05 02:00:27;;;;;;;23.30;10.73;;;8.40;99.90;;;;;;4172236;28;20798;-53
2022/05/05 02:02:28;;;;;;;19.20;11.77;;;8.40;99.90;;;;;;4172771;28;20037;-56
2022/05/05 02:04:29;;;;;;;17.90;12.37;;;8.30;99.90;;;;;;4173005;28;20079;-59
2022/05/05 02:06:30;;;;;;;15.10;10.47;;;8.30;99.90;;;;;;4172729;28;20045;-55
2022/05/05 02:08:32;;;;;;;23.43;12.23;;;8.20;99.90;;;;;;4173256;28;20056;-57
2022/05/05 02:10:34;;;;;;;17.10;11.60;;;8.20;99.90;;;;;;4171656;28;20646;-54
2022/05/05 02:12:36;;;;;;;17.00;12.13;;;8.10;99.90;;;;;;4173416;28;20033;-57
2022/05/05 02:14:37;;;;;;;15.97;11.40;;;8.10;99.90;;;;;;4172005;28;20037;-58
2022/05/05 02:16:38;;;;;;;15.50;11.03;;;8.00;99.90;;;;;;4173191;28;20515;-57
2022/05/05 02:18:39;;;;;;;17.23;12.57;;;8.00;99.90;;;;;;4172338;28;20049;-60
2022/05/05 02:20:41;;;;;;;18.87;13.43;;;8.00;99.90;;;;;;4171544;28;20045;-55
2022/05/05 02:22:42;;;;;;;31.80;21.13;;;8.00;99.90;;;;;;4172933;28;20465;-59
2022/05/05 02:24:43;;;;;;;30.23;19.57;;;8.00;99.90;;;;;;4154512;28;20049;-62
2022/05/05 02:26:44;;;;;;;37.77;24.63;;;7.90;99.90;;;;;;4172560;28;20768;-55
2022/05/05 02:28:48;;;;;;;38.07;24.50;;;8.00;99.90;;;;;;4172624;28;20465;-54
2022/05/05 02:30:50;;;;;;;25.13;16.93;;;8.00;99.90;;;;;;4172799;28;20559;-56
2022/05/05 02:32:51;;;;;;;53.20;33.10;;;8.00;99.90;;;;;;4172055;28;20024;-55
2022/05/05 02:34:52;;;;;;;102.93;61.87;;;8.00;99.90;;;;;;4171949;28;20544;-60
2022/05/05 02:39:13;;;;;;;114.00;68.50;;;8.00;99.90;;;;;;4173186;28;20086;-62
2022/05/05 02:41:14;;;;;;;116.00;71.10;;;8.00;99.90;;;;;;4171669;28;20832;-52
2022/05/05 02:43:15;;;;;;;81.33;50.00;;;8.00;99.90;;;;;;4172469;28;20071;-58
2022/05/05 02:45:17;;;;;;;38.97;25.47;;;8.00;99.90;;;;;;4172065;28;20029;-55
2022/05/05 02:47:18;;;;;;;22.20;15.37;;;8.00;99.90;;;;;;4172391;28;20037;-54
2022/05/05 02:49:19;;;;;;;21.70;13.10;;;8.00;99.90;;;;;;4172034;28;20033;-63
2022/05/05 02:51:20;;;;;;;16.03;12.10;;;7.90;99.90;;;;;;4172745;28;20028;-56
2022/05/05 02:55:41;;;;;;;15.48;10.77;;;7.90;99.90;;;;;;4172397;28;20536;-57
2022/05/05 02:57:42;;;;;;;14.83;11.17;;;8.00;99.90;;;;;;4170972;28;20041;-55
2022/05/05 02:59:44;;;;;;;17.80;12.00;;;8.00;99.90;;;;;;4172407;28;21029;-55
2022/05/05 03:01:46;;;;;;;13.87;10.43;;;8.00;99.90;;;;;;4171844;28;20025;-56
2022/05/05 03:03:47;;;;;;;14.83;11.03;;;8.00;99.90;;;;;;4171805;28;20057;-60
2022/05/05 03:05:48;;;;;;;16.20;12.13;;;8.10;99.90;;;;;;4171776;28;20037;-53
2022/05/05 03:07:49;;;;;;;14.33;10.67;;;8.10;99.90;;;;;;4171769;28;20578;-60
2022/05/05 03:09:51;;;;;;;14.73;10.53;;;8.10;99.90;;;;;;4171403;28;20691;-58
2022/05/05 03:11:52;;;;;;;16.20;11.20;;;8.20;99.90;;;;;;4170687;28;20045;-66
2022/05/05 03:13:53;;;;;;;17.50;10.50;;;8.20;99.90;;;;;;4171788;28;20041;-54
2022/05/05 03:15:54;;;;;;;16.13;10.27;;;8.20;99.90;;;;;;4171663;28;20090;-55
2022/05/05 03:17:55;;;;;;;15.00;10.10;;;8.30;99.90;;;;;;4171865;28;20048;-51
2022/05/05 03:19:56;;;;;;;16.70;11.03;;;8.30;99.90;;;;;;4170692;28;20033;-55
2022/05/05 03:21:58;;;;;;;15.13;10.33;;;8.40;99.90;;;;;;4154346;28;20551;-59
2022/05/05 03:23:59;;;;;;;16.23;10.83;;;8.40;99.90;;;;;;4170812;28;20037;-63
2022/05/05 03:26:00;;;;;;;15.30;9.77;;;8.60;99.90;;;;;;4171836;28;20040;-56
2022/05/05 03:28:01;;;;;;;14.83;10.47;;;8.60;99.90;;;;;;4171045;28;20153;-57
2022/05/05 03:30:03;;;;;;;15.27;10.27;;;8.80;99.90;;;;;;4169905;28;20075;-56
2022/05/05 03:32:04;;;;;;;16.93;11.43;;;9.00;99.90;;;;;;4169884;28;20090;-53
2022/05/05 03:34:06;;;;;;;12.97;9.73;;;9.20;99.90;;;;;;4171516;28;20036;-57
2022/05/05 03:36:07;;;;;;;14.37;10.07;;;9.40;99.90;;;;;;4160221;28;20036;-56
2022/05/05 03:38:08;;;;;;;13.97;9.43;;;9.50;99.90;;;;;;4175162;28;20098;-62
2022/05/05 03:40:10;;;;;;;12.40;9.03;;;9.80;99.90;;;;;;4174888;28;20126;-57
2022/05/05 03:42:11;;;;;;;13.67;9.57;;;10.00;99.90;;;;;;4174512;28;20500;-67
2022/05/05 03:44:12;;;;;;;14.93;9.17;;;10.20;99.90;;;;;;4175629;28;20041;-59
2022/05/05 03:46:14;;;;;;;16.47;10.57;;;10.50;99.90;;;;;;4156995;28;20034;-57
2022/05/05 03:48:15;;;;;;;20.53;10.60;;;10.80;99.90;;;;;;4175125;28;20033;-59
2022/05/05 03:50:16;;;;;;;19.57;10.80;;;11.10;99.90;;;;;;4174752;28;20128;-55
2022/05/05 03:52:17;;;;;;;12.03;8.67;;;11.40;99.90;;;;;;4174800;28;20037;-56
2022/05/05 03:54:18;;;;;;;13.70;10.40;;;11.70;99.90;;;;;;4174026;28;20048;-59
2022/05/05 03:56:19;;;;;;;13.67;9.37;;;11.90;99.90;;;;;;4173507;28;20465;-57
2022/05/05 03:58:21;;;;;;;14.03;10.33;;;12.20;99.90;;;;;;4173431;28;20095;-55
2022/05/05 04:00:23;;;;;;;21.57;11.87;;;12.50;99.90;;;;;;4173851;28;20058;-51
2022/05/05 04:02:24;;;;;;;15.23;10.43;;;12.90;99.90;;;;;;4174333;28;20042;-57
2022/05/05 04:04:25;;;;;;;14.53;8.40;;;13.40;99.90;;;;;;4173828;28;20162;-57
2022/05/05 04:06:26;;;;;;;10.83;8.30;;;13.90;99.90;;;;;;4173383;28;20041;-56
2022/05/05 04:08:28;;;;;;;8.67;7.10;;;14.30;99.90;;;;;;4173827;28;20052;-59
2022/05/05 04:10:30;;;;;;;12.67;7.93;;;14.60;99.90;;;;;;4173674;28;20045;-62
2022/05/05 04:12:31;;;;;;;7.87;7.07;;;15.00;99.90;;;;;;4174040;28;20033;-58
2022/05/05 04:14:33;;;;;;;7.90;6.77;;;15.40;99.90;;;;;;4174591;28;20359;-57
2022/05/05 04:16:35;;;;;;;7.33;6.57;;;15.70;99.90;;;;;;4173278;28;20109;-59
2022/05/05 04:18:36;;;;;;;8.57;6.70;;;15.90;99.90;;;;;;4173639;28;20481;-59
2022/05/05 04:20:37;;;;;;;12.43;6.80;;;16.00;99.90;;;;;;4172822;28;20036;-57
2022/05/05 04:22:38;;;;;;;15.77;7.23;;;16.30;99.90;;;;;;4174421;28;20044;-56
2022/05/05 04:24:40;;;;;;;12.43;7.20;;;16.70;99.90;;;;;;4173175;28;20086;-68
2022/05/05 04:26:41;;;;;;;13.18;7.22;;;17.00;99.90;;;;;;4173948;28;20438;-66
2022/05/05 04:28:44;;;;;;;9.98;6.75;;;17.30;99.90;;;;;;4173163;28;20973;-58
2022/05/05 04:30:45;;;;;;;7.40;6.50;;;17.50;99.90;;;;;;4171317;28;20041;-58
2022/05/05 04:32:46;;;;;;;14.10;6.47;;;17.70;99.90;;;;;;4168748;28;20040;-56
2022/05/05 04:34:48;;;;;;;10.77;7.22;;;17.80;99.90;;;;;;4180021;28;20123;-59
2022/05/05 04:36:50;;;;;;;14.85;7.10;;;17.90;99.90;;;;;;4185610;28;20090;-58
2022/05/05 04:38:51;;;;;;;11.43;6.60;;;17.80;99.90;;;;;;4179868;28;20060;-58
2022/05/05 04:40:52;;;;;;;11.57;7.50;;;17.70;99.90;;;;;;4179729;28;20049;-58
2022/05/05 04:42:53;;;;;;;11.60;6.40;;;17.50;99.90;;;;;;4178131;28;20041;-52
2022/05/05 04:44:54;;;;;;;13.00;7.60;;;17.30;99.90;;;;;;4183382;28;20032;-58
2022/05/05 04:46:55;;;;;;;11.73;7.25;;;17.20;99.90;;;;;;4184614;28;20484;-57
2022/05/05 04:48:56;;;;;;;12.18;6.78;;;17.30;99.90;;;;;;4190305;28;20070;-55
2022/05/05 04:50:57;;;;;;;12.55;8.32;;;17.30;99.90;;;;;;4178696;28;20045;-63
2022/05/05 04:52:59;;;;;;;9.07;7.00;;;17.40;99.90;;;;;;4186668;28;20078;-68
2022/05/05 04:55:00;;;;;;;13.63;7.35;;;17.60;99.90;;;;;;4172589;28;20094;-64
2022/05/05 04:57:01;;;;;;;10.73;7.43;;;17.60;99.90;;;;;;4182036;28;20450;-68
2022/05/05 04:59:04;;;;;;;12.13;7.93;;;17.60;99.90;;;;;;4188740;28;20484;-60
2022/05/05 05:01:05;;;;;;;10.15;7.63;;;17.90;99.90;;;;;;4161780;28;20111;-59
2022/05/05 05:03:32;;;;;;;12.68;6.78;;;18.20;99.90;;;;;;4172332;28;20394;-63
2022/05/05 05:05:27;;;;;;;12.63;8.35;;;18.40;99.90;;;;;;4173917;28;20435;-66
2022/05/05 05:07:28;;;;;;;15.60;6.88;;;18.60;99.90;;;;;;4173308;28;20444;-57
2022/05/05 05:09:29;;;;;;;10.27;7.35;;;18.30;99.90;;;;;;4173539;28;20052;-57
2022/05/05 05:11:32;;;;;;;10.98;7.38;;;18.20;99.90;;;;;;4172867;28;20572;-56
2022/05/05 05:13:33;;;;;;;8.48;6.63;;;18.20;99.90;;;;;;4172881;28;20029;-55
2022/05/05 05:15:34;;;;;;;8.25;6.65;;;18.30;99.90;;;;;;4172971;28;20078;-57
2022/05/05 05:17:35;;;;;;;13.43;7.68;;;18.40;99.90;;;;;;4172877;28;20090;-56
2022/05/05 05:19:36;;;;;;;12.80;6.70;;;18.80;99.90;;;;;;4172259;28;20053;-57
2022/05/05 05:21:38;;;;;;;11.63;5.65;;;19.10;99.90;;;;;;4173016;28;20037;-58
2022/05/05 05:23:39;;;;;;;12.70;6.63;;;19.00;99.60;;;;;;4172868;28;20086;-57
2022/05/05 05:25:40;;;;;;;8.00;6.32;;;19.00;99.40;;;;;;4172388;28;20074;-56
2022/05/05 05:27:41;;;;;;;9.07;6.93;;;18.90;99.30;;;;;;4173440;28;20037;-57
2022/05/05 05:29:42;;;;;;;8.35;6.15;;;19.00;99.00;;;;;;4172181;28;20033;-59
2022/05/05 05:31:43;;;;;;;11.95;6.63;;;18.90;98.80;;;;;;4173584;28;20095;-53
2022/05/05 05:33:44;;;;;;;8.82;6.40;;;18.70;98.90;;;;;;4154633;28;20105;-62
2022/05/05 05:35:46;;;;;;;12.90;6.82;;;18.90;98.80;;;;;;4173277;28;20174;-58
2022/05/05 05:37:47;;;;;;;6.28;5.65;;;19.20;98.60;;;;;;4172918;28;20079;-58
2022/05/05 05:39:48;;;;;;;10.05;5.97;;;19.80;97.80;;;;;;4172878;28;20119;-63
2022/05/05 05:41:49;;;;;;;8.75;6.38;;;20.30;97.00;;;;;;4173086;28;20081;-56
2022/05/05 05:43:51;;;;;;;8.13;6.50;;;;;;;;;;4155108;28;20177;-54
2022/05/05 05:45:52;;;;;;;9.10;7.40;;;;;;;;;;4172395;28;20052;-59
2022/05/05 05:47:53;;;;;;;11.55;8.20;;;20.50;96.50;;;;;;4172509;28;20040;-62
2022/05/05 05:49:55;;;;;;;11.32;8.05;;;20.30;96.00;;;;;;4172411;28;20083;-59
2022/05/05 05:51:56;;;;;;;12.25;9.00;;;19.20;97.30;;;;;;4172931;28;20443;-64
2022/05/05 05:53:57;;;;;;;9.75;8.52;;;18.60;98.60;;;;;;4172761;28;20137;-57
2022/05/05 05:55:58;;;;;;;23.55;17.88;;;18.00;99.50;;;;;;4172337;28;20025;-64
2022/05/05 05:57:59;;;;;;;25.98;21.52;;;17.50;99.90;;;;;;4171578;28;20460;-62
2022/05/05 06:00:01;;;;;;;16.88;13.27;;;17.40;99.90;;;;;;4171162;28;20099;-65
2022/05/05 06:04:21;;;;;;;13.45;10.88;;;16.80;99.90;;;;;;4172182;28;20106;-59
2022/05/05 06:06:24;;;;;;;15.65;11.63;;;16.30;99.90;;;;;;4172067;28;20033;-64
2022/05/05 06:08:25;;;;;;;13.52;10.60;;;16.30;99.90;;;;;;4172221;28;20029;-56
2022/05/05 06:10:27;;;;;;;12.52;11.18;;;16.30;99.90;;;;;;4172931;28;20021;-58
2022/05/05 06:12:28;;;;;;;14.48;11.27;;;16.30;99.90;;;;;;4172052;28;20109;-60
2022/05/05 06:14:30;;;;;;;11.65;9.60;;;16.50;99.90;;;;;;4172875;28;20083;-69
2022/05/05 06:16:31;;;;;;;16.80;10.85;;;16.70;99.90;;;;;;4172331;28;20092;-68
2022/05/05 06:18:36;;;;;;;12.65;10.23;;;16.90;99.90;;;;;;4170955;28;20056;-66
2022/05/05 06:20:38;;;;;;;14.05;10.85;;;16.70;99.90;;;;;;4172250;28;20028;-59
2022/05/05 06:22:39;;;;;;;14.98;10.07;;;16.50;99.90;;;;;;4171757;28;20041;-60
2022/05/05 06:24:41;;;;;;;13.77;9.95;;;16.80;99.90;;;;;;4170912;28;20102;-59
2022/05/05 06:26:42;;;;;;;17.40;10.43;;;16.90;99.90;;;;;;4171260;28;20473;-63
2022/05/05 06:28:44;;;;;;;13.50;10.27;;;16.60;99.90;;;;;;4172105;28;20440;-60
2022/05/05 06:30:45;;;;;;;13.20;9.93;;;16.80;99.90;;;;;;4171337;28;20086;-58
2022/05/05 06:32:46;;;;;;;12.07;9.98;;;16.50;99.90;;;;;;4172341;28;20082;-56
2022/05/05 06:34:47;;;;;;;17.40;11.40;;;16.30;99.90;;;;;;4171447;28;20079;-64
2022/05/05 06:36:48;;;;;;;16.55;10.73;;;16.20;99.90;;;;;;4171487;28;20122;-68
2022/05/05 06:38:53;;;;;;;14.80;11.27;;;16.30;99.90;;;;;;4170773;28;20075;-66
2022/05/05 06:40:54;;;;;;;18.20;12.88;;;16.00;99.90;;;;;;4171459;28;20106;-58
2022/05/05 06:42:56;;;;;;;17.70;12.98;;;15.80;99.90;;;;;;4171247;28;20094;-66
2022/05/05 06:44:58;;;;;;;12.27;9.50;;;15.70;99.90;;;;;;4172584;28;20090;-62
2022/05/05 06:46:59;;;;;;;17.20;11.98;;;15.70;99.90;;;;;;4172045;28;20473;-56
2022/05/05 06:49:01;;;;;;;14.88;12.07;;;15.60;99.90;;;;;;4172090;28;20040;-59
2022/05/05 06:51:02;;;;;;;21.55;12.85;;;15.60;99.90;;;;;;4171253;28;20099;-58
2022/05/05 06:53:03;;;;;;;15.55;12.07;;;15.90;99.90;;;;;;4171605;28;20074;-62
2022/05/05 06:55:05;;;;;;;18.73;12.40;;;15.90;99.90;;;;;;4170925;28;20194;-53
2022/05/05 06:57:06;;;;;;;18.70;13.90;;;16.10;99.90;;;;;;4171776;28;20028;-57
2022/05/05 06:59:07;;;;;;;17.65;12.68;;;15.70;99.90;;;;;;4171196;28;20045;-54
2022/05/05 07:03:30;;;;;;;16.70;12.45;;;15.50;99.90;;;;;;4172168;28;20090;-65
2022/05/05 07:05:33;;;;;;;18.00;11.77;;;15.40;99.90;;;;;;4171018;28;20520;-60
2022/05/05 07:07:34;;;;;;;17.88;12.18;;;15.40;99.90;;;;;;4171509;28;20020;-54
2022/05/05 07:11:55;;;;;;;17.05;11.23;;;15.50;99.90;;;;;;4172370;28;20098;-56
2022/05/05 07:13:56;;;;;;;16.85;10.93;;;15.60;99.90;;;;;;4171699;28;20885;-57
2022/05/05 07:15:57;;;;;;;11.57;8.98;;;15.70;99.90;;;;;;4171698;28;20095;-62
2022/05/05 07:17:59;;;;;;;11.43;9.15;;;15.70;99.90;;;;;;4171216;28;20071;-55
2022/05/05 07:20:00;;;;;;;10.57;8.88;;;15.70;99.90;;;;;;4171916;28;20044;-55
2022/05/05 07:22:01;;;;;;;10.40;8.98;;;15.80;99.90;;;;;;4170640;28;20438;-56
2022/05/05 07:24:03;;;;;;;13.23;8.48;;;16.00;99.90;;;;;;4171458;28;20551;-56
2022/05/05 07:26:05;;;;;;;9.05;7.45;;;16.30;99.90;;;;;;4170594;28;20567;-66
2022/05/05 07:28:07;;;;;;;19.77;7.60;;;16.80;99.90;;;;;;4171099;28;20102;-62
2022/05/05 07:30:09;;;;;;;11.65;7.75;;;16.80;99.90;;;;;;4171163;28;20110;-56
2022/05/05 07:32:11;;;;;;;10.20;7.38;;;16.90;99.90;;;;;;4171793;28;20074;-55
2022/05/05 07:34:12;;;;;;;10.82;6.55;;;17.20;99.90;;;;;;4171435;28;20102;-62
2022/05/05 07:36:13;;;;;;;7.45;5.55;;;17.50;99.90;;;;;;4171753;28;20559;-62
2022/05/05 07:38:14;;;;;;;8.45;6.28;;;17.40;99.90;;;;;;4171180;28;20256;-57
2022/05/05 07:40:15;;;;;;;7.32;5.40;;;17.40;99.90;;;;;;4170677;28;20847;-67
2022/05/05 07:42:17;;;;;;;7.85;4.95;;;17.40;99.90;;;;;;4171107;28;20784;-57
2022/05/05 07:44:18;;;;;;;6.10;3.97;;;17.60;99.90;;;;;;4171140;28;20110;-57
2022/05/05 07:46:19;;;;;;;4.75;4.32;;;17.60;99.90;;;;;;4171649;28;20507;-59
2022/05/05 07:48:20;;;;;;;5.43;4.03;;;17.80;99.90;;;;;;4171065;28;20086;-59
2022/05/05 07:50:21;;;;;;;4.82;3.55;;;18.10;99.90;;;;;;4171538;28;20066;-58
2022/05/05 07:52:22;;;;;;;7.93;3.50;;;18.10;99.90;;;;;;4170544;28;20040;-61
2022/05/05 07:54:39;;;;;;;3.28;2.97;;;18.00;99.90;;;;;;4172205;28;20040;-64
2022/05/05 07:56:41;;;;;;;5.60;3.60;;;17.90;99.90;;;;;;4171226;28;20127;-58
2022/05/05 07:58:42;;;;;;;6.43;4.60;;;18.00;99.90;;;;;;4171177;28;20033;-63
2022/05/05 08:00:43;;;;;;;4.40;3.92;;;18.20;99.90;;;;;;4170873;28;20041;-58
2022/05/05 08:02:44;;;;;;;4.32;3.90;;;18.30;99.90;;;;;;4171330;28;20036;-59
2022/05/05 08:04:46;;;;;;;3.75;3.03;;;18.20;99.90;;;;;;4170538;28;20041;-58
2022/05/05 08:06:47;;;;;;;3.58;3.25;;;18.20;99.90;;;;;;4153631;28;20068;-69
2022/05/05 08:08:48;;;;;;;6.00;3.83;;;18.20;99.90;;;;;;4170984;28;20095;-57
2022/05/05 08:10:53;;;;;;;9.93;3.58;;;18.20;99.90;;;;;;4171130;28;20049;-64
2022/05/05 08:12:54;;;;;;;7.95;4.20;;;18.30;99.90;;;;;;4171378;28;20083;-55
2022/05/05 08:14:56;;;;;;;5.30;4.20;;;18.40;99.90;;;;;;4170811;28;20130;-57
2022/05/05 08:16:58;;;;;;;4.97;4.47;;;18.60;99.90;;;;;;4170938;28;20458;-56
2022/05/05 08:18:59;;;;;;;4.10;3.38;;;18.80;99.90;;;;;;4169865;28;20049;-57
2022/05/05 08:21:00;;;;;;;5.20;2.95;;;18.80;99.90;;;;;;4171079;28;20028;-64
2022/05/05 08:23:01;;;;;;;3.15;2.92;;;18.70;99.90;;;;;;4173356;28;20042;-57
2022/05/05 08:29:44;;;;;;;3.63;2.85;;;18.40;99.90;;;;;;4175098;28;20064;-56
2022/05/05 08:31:45;;;;;;;4.07;3.47;;;18.40;99.90;;;;;;4173676;28;20083;-58
2022/05/05 08:33:47;;;;;;;4.03;3.13;;;18.40;99.90;;;;;;4173820;28;20053;-57
2022/05/05 08:35:48;;;;;;;4.20;3.20;;;18.40;99.90;;;;;;4173488;28;20693;-55
2022/05/05 08:37:51;;;;;;;4.93;3.65;;;18.50;99.90;;;;;;4173965;28;20049;-58
2022/05/05 08:39:52;;;;;;;4.95;3.35;;;18.60;99.90;;;;;;4173451;28;20041;-59
2022/05/05 08:41:54;;;;;;;5.18;3.00;;;18.70;99.90;;;;;;4173778;28;20084;-65
2022/05/05 08:43:55;;;;;;;6.72;2.83;;;18.80;99.90;;;;;;4172853;28;20638;-58
2022/05/05 08:46:02;;;;;;;3.10;2.80;;;18.80;99.90;;;;;;4174316;28;20021;-58
2022/05/05 08:48:09;;;;;;;5.03;2.83;;;18.80;99.90;;;;;;4173685;28;20031;-61
2022/05/05 08:50:10;;;;;;;4.82;3.30;;;18.70;99.90;;;;;;4173271;28;20050;-71
2022/05/05 08:52:18;;;;;;;4.00;3.45;;;18.60;99.90;;;;;;4172994;28;20039;-59
2022/05/05 08:54:25;;;;;;;5.93;3.08;;;18.60;99.90;;;;;;4174216;28;20025;-56
2022/05/05 08:56:26;;;;;;;4.05;3.67;;;18.40;99.90;;;;;;4172505;28;20083;-55
2022/05/05 08:58:29;;;;;;;4.95;3.65;;;18.50;99.90;;;;;;4173277;28;20992;-59
2022/05/05 09:00:30;;;;;;;4.53;3.70;;;18.40;99.90;;;;;;4172658;28;20107;-60
2022/05/05 09:02:31;;;;;;;5.38;3.45;;;18.50;99.90;;;;;;4173679;28;20082;-58
2022/05/05 09:04:32;;;;;;;6.00;3.63;;;18.60;99.90;;;;;;4172976;28;20065;-68
2022/05/05 09:06:46;;;;;;;4.60;3.92;;;18.70;99.90;;;;;;4173756;28;20033;-67
2022/05/05 09:08:47;;;;;;;4.13;3.45;;;18.70;99.90;;;;;;4172816;28;20559;-59
2022/05/05 09:10:50;;;;;;;5.38;3.88;;;18.70;99.90;;;;;;4172636;28;20522;-57
2022/05/05 09:12:59;;;;;;;4.63;3.33;;;18.90;99.90;;;;;;4172729;28;20044;-58
2022/05/05 09:15:00;;;;;;;10.50;4.00;;;18.90;99.90;;;;;;4172179;28;20090;-53
2022/05/05 09:17:06;;;;;;;3.47;3.10;;;18.90;99.90;;;;;;4173860;28;20067;-58
2022/05/05 09:19:10;;;;;;;5.20;3.92;;;19.00;99.90;;;;;;4172776;28;20032;-55
2022/05/05 09:21:11;;;;;;;3.97;3.58;;;19.20;99.90;;;;;;4173529;28;20105;-57
2022/05/05 09:26:05;;;;;;;5.90;4.00;;;19.30;99.90;;;;;;4173868;28;20106;-59
2022/05/05 09:28:24;;;;;;;5.85;3.55;;;19.30;99.90;;;;;;4172840;28;20028;-58
2022/05/05 09:30:28;;;;;;;5.32;3.33;;;19.20;98.50;;;;;;4173070;28;20033;-55
2022/05/05 09:32:45;;;;;;;3.83;3.25;;;19.20;98.60;;;;;;4172487;28;20029;-61
2022/05/05 09:34:46;;;;;;;6.15;4.07;;;19.10;98.50;;;;;;4172348;28;20864;-57
2022/05/05 09:36:48;;;;;;;4.78;3.47;;;19.20;99.40;;;;;;4172483;28;20044;-62
2022/05/05 09:39:00;;;;;;;4.10;3.45;;;19.20;99.40;;;;;;4172689;28;20033;-60
2022/05/05 09:41:04;;;;;;;5.57;4.40;;;19.30;99.00;;;;;;4171504;28;20057;-58
2022/05/05 09:43:10;;;;;;;4.47;3.75;;;19.40;98.80;;;;;;4172013;28;20378;-61
2022/05/05 09:45:32;;;;;;;4.32;3.75;;;19.30;98.70;;;;;;4171157;28;20041;-61
2022/05/05 09:47:33;;;;;;;4.97;3.38;;;19.40;98.00;;;;;;4172457;28;20040;-56
2022/05/05 09:49:35;;;;;;;9.35;3.83;;;19.30;97.50;;;;;;4172064;28;20481;-58
2022/05/05 09:51:44;;;;;;;4.57;4.03;;;19.30;97.00;;;;;;4172730;28;20021;-56
2022/05/05 09:58:35;;;;;;;4.13;3.60;;;19.50;96.20;;;;;;4171943;28;20086;-59
2022/05/05 10:05:02;;;;;;;5.20;3.53;;;19.60;96.10;;;;;;4172102;28;20186;-59
2022/05/05 10:07:03;;;;;;;4.57;3.08;;;19.50;95.20;;;;;;4172169;28;20027;-60
2022/05/05 10:09:14;;;;;;;3.90;2.63;;;19.40;95.20;;;;;;4172244;28;20148;-62
2022/05/05 10:11:15;;;;;;;2.97;2.72;;;19.40;93.90;;;;;;4171530;28;20455;-70
2022/05/05 10:13:20;;;;;;;3.40;3.10;;;19.40;93.00;;;;;;4172619;28;20080;-55
2022/05/05 10:15:22;;;;;;;3.60;2.85;;;19.40;92.50;;;;;;4172278;28;20021;-55
2022/05/05 10:17:23;;;;;;;3.95;2.95;;;19.50;91.90;;;;;;4171561;28;20032;-55
2022/05/05 10:19:24;;;;;;;2.45;2.25;;;19.50;92.00;;;;;;4170714;28;20099;-55
2022/05/05 10:21:35;;;;;;;5.85;2.30;;;19.70;92.00;;;;;;4194327;22;20079;-64
2022/05/05 10:23:40;;;;;;;;;;;19.80;91.80;;;;;;4223320;28;20495;-66
2022/05/05 10:25:42;;;;;;;3.55;2.65;;;19.90;90.50;;;;;;4223154;28;19908;-60
2022/05/05 10:27:43;;;;;;;3.17;2.17;;;20.00;90.60;;;;;;4223544;28;20032;-68
2022/05/05 10:29:46;;;;;;;5.93;2.58;;;20.10;90.10;;;;;;4221149;28;20035;-57
2022/05/05 10:31:47;;;;;;;4.03;2.75;;;20.20;90.10;;;;;;4224138;28;20123;-57
2022/05/05 10:34:02;;;;;;;2.85;2.55;;;20.30;89.90;;;;;;4221802;28;20440;-57
2022/05/05 10:36:22;;;;;;;4.82;2.10;;;20.40;86.30;;;;;;4223556;28;20043;-56
2022/05/05 10:38:40;;;;;;;4.22;2.53;;;20.40;83.80;;;;;;4222886;28;20073;-58
2022/05/05 10:40:46;;;;;;;7.25;2.35;;;20.50;81.10;;;;;;4223588;28;20104;-60
2022/05/05 10:42:52;;;;;;;1.98;1.88;;;20.30;82.40;;;;;;4222260;28;20039;-58
2022/05/05 10:45:07;;;;;;;2.83;2.13;;;20.30;81.00;;;;;;4222996;28;20139;-54
2022/05/05 10:47:08;;;;;;;12.02;6.72;;;20.40;77.20;;;;;;4222658;28;20126;-56
2022/05/05 10:49:41;;;;;;;6.80;2.85;;;20.40;78.30;;;;;;4223309;28;20495;-60
2022/05/05 10:52:08;;;;;;;7.68;3.38;;;20.40;75.40;;;;;;4215478;28;20096;-52
2022/05/05 10:54:24;;;;;;;2.88;2.05;;;20.20;74.40;;;;;;4223244;28;20032;-57
2022/05/05 10:56:28;;;;;;;3.92;2.08;;;20.00;73.10;;;;;;4223676;28;20040;-60
2022/05/05 10:59:06;;;;;;;4.13;2.33;;;19.90;73.80;;;;;;4222521;28;20417;-69
2022/05/05 11:01:10;;;;;;;4.05;2.90;;;19.90;74.10;;;;;;4223236;28;20119;-57
2022/05/05 11:03:18;;;;;;;2.72;2.40;;;20.00;75.40;;;;;;4222105;28;20081;-67
2022/05/05 11:05:33;;;;;;;3.50;2.05;;;20.10;74.60;;;;;;4223796;28;20056;-58
2022/05/05 11:07:36;;;;;;;3.10;2.05;;;20.20;71.90;;;;;;4220801;28;20855;-60
2022/05/05 11:09:37;;;;;;;4.97;2.47;;;20.10;73.90;;;;;;4222870;28;20047;-57